Time;durP1;ratioP1;P1;durP2;ratioP2;P2;SDS_P1;SDS_P2;PMS_P1;PMS_P2;Temp;Humidity;BMP_temperature;BMP_pressure;BME280_temperature;BME280_humidity;BME280_pressure;Samples;Min_cycle;Max_cycle;Signal;HPM_P1;HPM_P2
2020/12/31 00:00:59;;;;;;;25.33;15.50;;;5.10;91.00;;;;;;5013943;28;20057;-65
2020/12/31 00:03:24;;;;;;;25.67;15.63;;;5.10;91.10;;;;;;5014298;28;20517;-65
2020/12/31 00:05:50;;;;;;;26.33;15.50;;;5.10;91.10;;;;;;5013816;28;20077;-65
2020/12/31 00:08:16;;;;;;;25.23;15.30;;;5.10;91.10;;;;;;5012090;28;20040;-65
2020/12/31 00:10:42;;;;;;;26.60;14.60;;;5.10;91.10;;;;;;5012595;28;20030;-65
2020/12/31 00:13:08;;;;;;;23.77;14.93;;;5.10;91.20;;;;;;5013139;28;20052;-65
2020/12/31 00:15:34;;;;;;;24.17;15.03;;;5.10;91.20;;;;;;5011161;28;20468;-64
2020/12/31 00:17:59;;;;;;;23.70;14.77;;;5.20;91.20;;;;;;5010667;28;20120;-65
2020/12/31 00:20:25;;;;;;;22.93;14.27;;;5.10;91.20;;;;;;5045351;28;20038;-65
2020/12/31 00:22:51;;;;;;;23.67;15.17;;;5.10;91.20;;;;;;5012797;28;20042;-65
2020/12/31 00:25:17;;;;;;;26.27;15.17;;;5.10;91.20;;;;;;5012497;28;20487;-65
2020/12/31 00:27:43;;;;;;;26.70;15.10;;;5.20;91.30;;;;;;5013699;28;20041;-65
2020/12/31 00:30:10;;;;;;;25.30;15.20;;;5.10;91.20;;;;;;5012049;28;20096;-65
2020/12/31 00:32:36;;;;;;;24.83;15.70;;;5.20;91.20;;;;;;5012104;28;20056;-65
2020/12/31 00:35:05;;;;;;;23.73;15.87;;;5.20;91.30;;;;;;5013386;28;20042;-64
2020/12/31 00:37:35;;;;;;;21.60;13.87;;;5.20;91.20;;;;;;5012285;28;20418;-65
2020/12/31 00:40:03;;;;;;;24.20;14.97;;;5.20;91.30;;;;;;5013824;28;20048;-65
2020/12/31 00:42:29;;;;;;;28.30;16.43;;;5.20;91.30;;;;;;5012981;28;20034;-65
2020/12/31 00:44:54;;;;;;;23.40;15.93;;;5.20;91.30;;;;;;5045158;28;20077;-65
2020/12/31 00:47:20;;;;;;;25.00;16.77;;;5.20;91.20;;;;;;5013363;28;20427;-65
2020/12/31 00:49:46;;;;;;;25.23;16.57;;;5.20;91.20;;;;;;5013742;28;20045;-64
2020/12/31 00:52:12;;;;;;;23.70;15.40;;;5.20;91.20;;;;;;5012753;28;20125;-65
2020/12/31 00:54:38;;;;;;;23.90;16.67;;;5.20;91.30;;;;;;5011686;28;20109;-65
2020/12/31 00:57:04;;;;;;;26.00;15.53;;;5.20;91.30;;;;;;5012095;28;20057;-64
2020/12/31 00:59:32;;;;;;;27.50;15.83;;;5.30;91.20;;;;;;5012206;28;20034;-65
2020/12/31 01:01:57;;;;;;;24.10;15.10;;;5.20;91.20;;;;;;5044404;28;20032;-65
2020/12/31 01:04:23;;;;;;;22.17;14.67;;;5.20;91.20;;;;;;5044855;28;20042;-65
2020/12/31 01:06:49;;;;;;;23.67;14.80;;;5.20;91.20;;;;;;5011649;28;20092;-65
2020/12/31 01:09:15;;;;;;;23.40;15.07;;;5.20;91.10;;;;;;5013118;28;20084;-65
2020/12/31 01:11:40;;;;;;;24.47;14.60;;;5.20;91.20;;;;;;5012889;28;20038;-65
2020/12/31 01:14:07;;;;;;;21.60;14.47;;;5.20;91.20;;;;;;5012487;28;20049;-65
2020/12/31 01:16:33;;;;;;;21.60;13.80;;;5.20;91.20;;;;;;5012966;28;20549;-65
2020/12/31 01:18:59;;;;;;;20.97;13.90;;;5.20;91.20;;;;;;5011396;28;20072;-65
2020/12/31 01:21:24;;;;;;;21.00;13.07;;;5.20;91.20;;;;;;5013024;28;20507;-65
2020/12/31 01:23:50;;;;;;;19.37;13.63;;;5.20;91.10;;;;;;5012681;28;20121;-64
2020/12/31 01:26:29;;;;;;;22.50;13.63;;;5.20;91.10;;;;;;5012245;28;20026;-64
2020/12/31 01:28:55;;;;;;;19.67;12.73;;;5.20;91.00;;;;;;4994765;28;20125;-68
2020/12/31 01:31:20;;;;;;;17.67;11.83;;;5.10;91.00;;;;;;5012777;28;20566;-65
2020/12/31 01:33:46;;;;;;;20.10;12.87;;;5.20;91.00;;;;;;5011312;28;20029;-64
2020/12/31 01:36:12;;;;;;;17.80;12.33;;;5.20;91.00;;;;;;5012030;28;20061;-65
2020/12/31 01:38:37;;;;;;;20.53;12.23;;;5.10;90.90;;;;;;5011426;28;20121;-65
2020/12/31 01:41:03;;;;;;;20.57;13.13;;;5.10;90.80;;;;;;5012674;28;20234;-65
2020/12/31 01:43:29;;;;;;;19.93;13.07;;;5.10;90.70;;;;;;5012416;28;20037;-65
2020/12/31 01:45:55;;;;;;;25.37;12.77;;;5.00;90.60;;;;;;5011132;28;20128;-65
2020/12/31 01:48:21;;;;;;;20.13;12.53;;;4.90;90.60;;;;;;5012051;28;20034;-65
2020/12/31 01:50:47;;;;;;;20.23;12.73;;;4.90;90.80;;;;;;5012600;28;20394;-65
2020/12/31 01:53:14;;;;;;;21.53;12.47;;;4.90;90.90;;;;;;5012067;28;20042;-65
2020/12/31 01:55:42;;;;;;;21.17;12.40;;;4.90;90.90;;;;;;5010397;28;20152;-65
2020/12/31 01:58:08;;;;;;;20.33;11.83;;;4.80;90.80;;;;;;5011036;28;20049;-65
2020/12/31 02:00:34;;;;;;;21.30;12.13;;;4.80;90.90;;;;;;5012079;28;20049;-65
2020/12/31 02:03:00;;;;;;;19.43;12.23;;;4.80;90.90;;;;;;5011642;28;20500;-65
2020/12/31 02:05:26;;;;;;;20.20;12.37;;;4.80;90.90;;;;;;5011572;28;20510;-65
2020/12/31 02:07:52;;;;;;;20.00;12.10;;;4.90;90.90;;;;;;5010431;28;20065;-65
2020/12/31 02:10:18;;;;;;;21.30;12.93;;;4.90;90.90;;;;;;5012168;28;20044;-65
2020/12/31 02:12:43;;;;;;;20.10;12.23;;;5.00;90.80;;;;;;5009962;28;20049;-66
2020/12/31 02:15:16;;;;;;;19.83;12.50;;;5.00;90.80;;;;;;5011755;28;20034;-65
2020/12/31 02:17:44;;;;;;;19.67;11.77;;;5.00;90.80;;;;;;5011536;28;20034;-66
2020/12/31 02:20:12;;;;;;;21.73;12.13;;;5.00;90.70;;;;;;5011145;28;20053;-65
2020/12/31 02:22:38;;;;;;;18.83;11.87;;;5.00;90.70;;;;;;5011509;28;20038;-65
2020/12/31 02:25:04;;;;;;;18.73;12.40;;;5.00;90.70;;;;;;5009824;28;20049;-65
2020/12/31 02:27:29;;;;;;;24.10;13.40;;;5.00;90.70;;;;;;5011743;28;20030;-65
2020/12/31 02:29:55;;;;;;;23.40;14.20;;;4.90;90.60;;;;;;5010109;28;20030;-65
2020/12/31 02:32:21;;;;;;;23.90;14.30;;;5.00;90.60;;;;;;5043116;28;20044;-65
2020/12/31 02:34:46;;;;;;;24.40;14.40;;;5.00;90.60;;;;;;5011406;28;20091;-65
2020/12/31 02:37:12;;;;;;;27.10;15.73;;;5.00;90.60;;;;;;5042658;28;20054;-65
2020/12/31 02:39:38;;;;;;;22.53;14.60;;;4.90;90.50;;;;;;5010393;28;20063;-65
2020/12/31 02:42:04;;;;;;;25.47;14.87;;;4.90;90.50;;;;;;5011138;28;20042;-65
2020/12/31 02:44:29;;;;;;;23.67;14.13;;;4.90;90.50;;;;;;5011063;28;20041;-65
2020/12/31 02:46:55;;;;;;;23.03;14.43;;;4.90;90.50;;;;;;5011630;28;20034;-65
2020/12/31 02:49:21;;;;;;;24.03;14.20;;;4.90;90.50;;;;;;5011012;28;20030;-65
2020/12/31 02:51:47;;;;;;;26.50;14.80;;;4.80;90.30;;;;;;5011133;28;20030;-65
2020/12/31 02:54:13;;;;;;;26.60;15.77;;;4.80;90.20;;;;;;5010967;28;20041;-65
2020/12/31 02:56:39;;;;;;;26.23;15.43;;;4.70;90.20;;;;;;5011001;28;20037;-65
2020/12/31 02:59:04;;;;;;;27.40;15.17;;;4.70;90.20;;;;;;5011155;28;20487;-65
2020/12/31 03:01:30;;;;;;;26.37;15.47;;;4.60;90.30;;;;;;5011023;28;20034;-65
2020/12/31 03:03:56;;;;;;;30.00;16.73;;;4.60;90.30;;;;;;5010999;28;20030;-65
2020/12/31 03:06:22;;;;;;;29.30;16.63;;;4.60;90.40;;;;;;5010862;28;20061;-65
2020/12/31 03:08:48;;;;;;;29.43;15.80;;;4.50;90.40;;;;;;5010894;28;20042;-65
2020/12/31 03:11:32;;;;;;;33.60;17.90;;;4.50;90.40;;;;;;5011275;28;20042;-65
2020/12/31 03:13:57;;;;;;;30.33;17.37;;;4.50;90.50;;;;;;5010629;28;20104;-65
2020/12/31 03:16:23;;;;;;;32.67;18.00;;;4.60;90.40;;;;;;5009232;28;20503;-65
2020/12/31 03:18:49;;;;;;;32.90;18.80;;;4.50;90.30;;;;;;5009203;28;20049;-65
2020/12/31 03:21:15;;;;;;;31.73;18.37;;;4.50;90.30;;;;;;5010427;28;20487;-65
2020/12/31 03:23:41;;;;;;;33.03;18.73;;;4.50;90.30;;;;;;5010816;28;20052;-65
2020/12/31 03:26:07;;;;;;;32.27;19.13;;;4.50;90.50;;;;;;5010441;28;20415;-65
2020/12/31 03:28:33;;;;;;;31.50;18.93;;;4.50;90.50;;;;;;5009746;28;20064;-65
2020/12/31 03:30:59;;;;;;;35.77;19.93;;;4.50;90.50;;;;;;5010689;28;20085;-65
2020/12/31 03:33:25;;;;;;;33.10;19.23;;;4.50;90.40;;;;;;5042382;28;20041;-65
2020/12/31 03:35:51;;;;;;;35.13;19.93;;;4.50;90.50;;;;;;5010785;28;20042;-65
2020/12/31 03:38:18;;;;;;;35.67;20.47;;;4.50;90.40;;;;;;5010491;28;20431;-65
2020/12/31 03:40:44;;;;;;;33.03;19.20;;;4.50;90.40;;;;;;5009630;28;20065;-65
2020/12/31 03:43:10;;;;;;;35.77;20.20;;;4.50;90.40;;;;;;5010229;28;20065;-65
2020/12/31 03:45:37;;;;;;;38.43;20.70;;;4.50;90.40;;;;;;5010649;28;20066;-65
2020/12/31 03:48:04;;;;;;;36.40;20.73;;;4.40;90.50;;;;;;5010809;28;20042;-65
2020/12/31 03:50:30;;;;;;;37.13;21.60;;;4.40;90.50;;;;;;5010652;28;20041;-65
2020/12/31 03:52:56;;;;;;;37.20;20.33;;;4.50;90.60;;;;;;5010604;28;20249;-65
2020/12/31 03:55:22;;;;;;;38.97;20.90;;;4.50;90.50;;;;;;5010162;28;20052;-65
2020/12/31 03:57:48;;;;;;;35.03;20.57;;;4.50;90.50;;;;;;5010796;28;20035;-65
2020/12/31 04:00:14;;;;;;;37.63;20.70;;;4.50;90.50;;;;;;5010764;28;20453;-65
2020/12/31 04:02:40;;;;;;;35.27;20.73;;;4.50;90.50;;;;;;5008836;28;20069;-65
2020/12/31 04:05:06;;;;;;;37.33;21.43;;;4.40;90.50;;;;;;5010475;28;20049;-65
2020/12/31 04:07:32;;;;;;;36.53;20.17;;;4.40;90.50;;;;;;5010289;28;20045;-65
2020/12/31 04:09:58;;;;;;;36.70;21.30;;;4.50;90.60;;;;;;5009415;28;20038;-65
2020/12/31 04:12:23;;;;;;;35.23;20.70;;;4.40;90.50;;;;;;5041946;28;20124;-65
2020/12/31 04:14:49;;;;;;;37.80;20.97;;;4.40;90.50;;;;;;5009676;28;20161;-65
2020/12/31 04:17:15;;;;;;;39.50;21.80;;;4.40;90.50;;;;;;5010671;28;20062;-65
2020/12/31 04:19:44;;;;;;;37.90;21.80;;;4.40;90.50;;;;;;5041090;28;20038;-65
2020/12/31 04:22:10;;;;;;;34.80;20.90;;;4.40;90.40;;;;;;5009110;28;20034;-65
2020/12/31 04:24:36;;;;;;;37.50;20.47;;;4.40;90.70;;;;;;5010112;28;20080;-65
2020/12/31 04:27:02;;;;;;;38.20;20.97;;;4.40;90.40;;;;;;5010887;28;20038;-65
2020/12/31 04:29:27;;;;;;;39.33;22.03;;;4.40;90.40;;;;;;5012807;28;20495;-65
2020/12/31 04:31:53;;;;;;;43.83;24.30;;;4.40;90.40;;;;;;5013236;28;20094;-65
2020/12/31 04:34:19;;;;;;;37.17;20.60;;;4.40;90.40;;;;;;5013674;28;20088;-65
2020/12/31 04:36:45;;;;;;;35.90;20.33;;;4.40;90.40;;;;;;5013838;28;20061;-65
2020/12/31 04:39:10;;;;;;;38.57;21.10;;;4.30;90.40;;;;;;5013389;28;20030;-65
2020/12/31 04:41:36;;;;;;;35.63;20.53;;;4.30;90.50;;;;;;5012408;28;20445;-65
2020/12/31 04:44:02;;;;;;;38.03;21.20;;;4.40;90.50;;;;;;5013250;28;20558;-65
2020/12/31 04:46:30;;;;;;;35.60;19.87;;;4.40;90.50;;;;;;5012203;28;20042;-65
2020/12/31 04:49:10;;;;;;;34.37;19.87;;;4.40;90.40;;;;;;5013558;28;20152;-65
2020/12/31 04:51:37;;;;;;;32.67;18.43;;;4.40;90.40;;;;;;5013214;28;20088;-65
2020/12/31 04:54:07;;;;;;;33.40;19.33;;;4.40;90.40;;;;;;5013450;28;20041;-65
2020/12/31 04:56:37;;;;;;;37.63;20.35;;;4.40;90.40;;;;;;5012804;28;20049;-65
2020/12/31 04:59:07;;;;;;;35.80;20.35;;;4.40;90.40;;;;;;4995888;28;20034;-65
2020/12/31 05:01:33;;;;;;;37.87;19.83;;;4.30;90.30;;;;;;5013085;28;20439;-65
2020/12/31 05:03:59;;;;;;;38.17;20.63;;;4.30;90.30;;;;;;5013382;28;20034;-65
2020/12/31 05:06:26;;;;;;;37.17;21.50;;;4.20;90.30;;;;;;5011857;28;20034;-65
2020/12/31 05:08:52;;;;;;;40.13;22.53;;;4.20;90.30;;;;;;4995074;28;20490;-65
2020/12/31 05:11:19;;;;;;;36.93;20.63;;;4.30;90.40;;;;;;5013117;28;20046;-65
2020/12/31 05:13:53;;;;;;;38.70;21.07;;;4.20;90.30;;;;;;5012044;28;20045;-66
2020/12/31 05:16:29;;;;;;;37.17;20.60;;;4.20;90.40;;;;;;5012696;28;20411;-65
2020/12/31 05:18:57;;;;;;;35.70;19.83;;;4.20;90.30;;;;;;5012634;28;20061;-65
2020/12/31 05:21:23;;;;;;;34.20;19.93;;;4.20;90.50;;;;;;5013016;28;20574;-65
2020/12/31 05:23:49;;;;;;;36.43;20.53;;;4.20;90.40;;;;;;5012396;28;20124;-65
2020/12/31 05:26:29;;;;;;;39.13;20.77;;;4.20;90.30;;;;;;5012771;28;20053;-65
2020/12/31 05:28:55;;;;;;;35.28;20.92;;;4.30;90.40;;;;;;5011154;28;20038;-65
2020/12/31 05:31:21;;;;;;;39.17;20.83;;;4.20;90.40;;;;;;5012790;28;20041;-65
2020/12/31 05:33:47;;;;;;;33.73;19.73;;;4.30;90.40;;;;;;5012538;28;20038;-65
2020/12/31 05:36:16;;;;;;;40.17;20.90;;;4.30;90.40;;;;;;5011969;28;20056;-65
2020/12/31 05:38:46;;;;;;;36.77;20.33;;;4.30;90.40;;;;;;5012507;28;20034;-65
2020/12/31 05:41:12;;;;;;;39.90;20.50;;;4.30;90.40;;;;;;5012193;28;20117;-65
2020/12/31 05:43:40;;;;;;;35.07;20.50;;;4.30;90.40;;;;;;5012356;28;20467;-65
2020/12/31 05:46:11;;;;;;;36.80;19.47;;;4.20;90.30;;;;;;5012075;28;20057;-66
2020/12/31 05:48:38;;;;;;;38.80;21.27;;;4.30;90.40;;;;;;5012655;28;20407;-65
2020/12/31 05:51:20;;;;;;;43.20;22.33;;;4.30;90.30;;;;;;5012614;28;20037;-65
2020/12/31 05:53:48;;;;;;;39.13;21.07;;;4.30;90.40;;;;;;4994514;28;20037;-65
2020/12/31 05:56:15;;;;;;;33.90;19.33;;;4.30;90.30;;;;;;5012189;28;20415;-65
2020/12/31 05:58:49;;;;;;;37.30;20.23;;;4.30;90.30;;;;;;5011805;28;20041;-65
2020/12/31 06:01:15;;;;;;;37.03;20.67;;;4.30;90.30;;;;;;5012336;28;20044;-65
2020/12/31 06:03:50;;;;;;;33.27;19.30;;;4.30;90.40;;;;;;5011566;28;20045;-65
2020/12/31 06:06:21;;;;;;;35.80;20.10;;;4.30;90.40;;;;;;5012146;28;20034;-65
2020/12/31 06:08:56;;;;;;;36.17;19.30;;;4.30;90.40;;;;;;5043472;28;20321;-65
2020/12/31 06:11:35;;;;;;;36.13;19.30;;;4.30;90.40;;;;;;5012187;28;20041;-65
2020/12/31 06:14:05;;;;;;;34.73;19.73;;;4.30;90.50;;;;;;5011354;28;20450;-65
2020/12/31 06:16:38;;;;;;;34.35;19.65;;;4.30;90.30;;;;;;5011807;28;20121;-65
2020/12/31 06:19:29;;;;;;;33.03;18.50;;;4.30;90.30;;;;;;5011483;28;20045;-65
2020/12/31 06:22:11;;;;;;;34.83;18.93;;;4.20;90.30;;;;;;5011108;28;20072;-66
2020/12/31 06:24:42;;;;;;;34.47;19.50;;;4.20;90.30;;;;;;5011722;28;20057;-65
2020/12/31 06:27:10;;;;;;;35.95;18.63;;;4.20;90.40;;;;;;5011385;28;20495;-65
2020/12/31 06:29:50;;;;;;;36.93;19.73;;;4.20;90.30;;;;;;5011921;28;20030;-65
2020/12/31 06:32:17;;;;;;;34.53;18.42;;;4.20;90.30;;;;;;5011122;28;20125;-65
2020/12/31 06:34:44;;;;;;;36.83;19.43;;;4.20;90.30;;;;;;5011394;28;20410;-65
2020/12/31 06:37:11;;;;;;;36.37;19.50;;;4.30;90.30;;;;;;5011265;28;20085;-65
2020/12/31 06:39:38;;;;;;;32.77;18.10;;;4.30;90.30;;;;;;5011658;28;20036;-65
2020/12/31 06:42:04;;;;;;;35.27;18.80;;;4.30;90.20;;;;;;5011453;28;20091;-65
2020/12/31 06:44:31;;;;;;;32.47;18.27;;;4.30;90.20;;;;;;5010992;28;20025;-65
2020/12/31 06:46:58;;;;;;;32.37;18.30;;;4.30;90.20;;;;;;5011852;28;20049;-65
2020/12/31 06:49:49;;;;;;;32.77;18.33;;;4.30;90.10;;;;;;5010756;28;20037;-65
2020/12/31 06:52:23;;;;;;;34.43;18.33;;;4.20;90.10;;;;;;5011229;28;20065;-65
2020/12/31 06:54:50;;;;;;;34.40;19.30;;;4.20;90.30;;;;;;5010874;28;20046;-65
2020/12/31 06:57:40;;;;;;;32.87;18.83;;;4.10;90.10;;;;;;5011537;28;20095;-65
2020/12/31 07:00:06;;;;;;;39.00;20.08;;;4.10;90.00;;;;;;5011064;28;20091;-65
2020/12/31 07:02:45;;;;;;;37.00;19.20;;;4.10;90.00;;;;;;5009816;28;20030;-65
2020/12/31 07:05:21;;;;;;;36.17;19.60;;;4.10;90.10;;;;;;5009453;28;20108;-65
2020/12/31 07:07:47;;;;;;;35.03;18.53;;;4.00;90.20;;;;;;5011165;28;20121;-65
2020/12/31 07:10:13;;;;;;;32.97;18.47;;;4.00;90.20;;;;;;5010763;28;20407;-65
2020/12/31 07:12:47;;;;;;;33.73;18.87;;;4.00;90.50;;;;;;5010960;28;20041;-65
2020/12/31 07:15:15;;;;;;;34.73;17.80;;;4.00;90.30;;;;;;5010512;28;20049;-65
2020/12/31 07:17:43;;;;;;;32.03;18.37;;;4.00;90.20;;;;;;5011081;28;20026;-65
2020/12/31 07:20:14;;;;;;;38.13;18.90;;;4.00;90.20;;;;;;5010801;28;20034;-65
2020/12/31 07:22:41;;;;;;;34.50;18.33;;;4.00;90.20;;;;;;5010617;28;20080;-65
2020/12/31 07:25:14;;;;;;;34.40;18.87;;;4.00;90.10;;;;;;5009232;28;20053;-65
2020/12/31 07:27:41;;;;;;;35.20;19.40;;;3.90;90.10;;;;;;5010958;28;20446;-65
2020/12/31 07:30:07;;;;;;;33.93;18.57;;;3.90;90.10;;;;;;5009725;28;20126;-65
2020/12/31 07:32:55;;;;;;;33.67;18.67;;;3.90;90.20;;;;;;5010385;28;20219;-65
2020/12/31 07:35:40;;;;;;;33.83;16.80;;;3.90;90.20;;;;;;5010214;28;20053;-65
2020/12/31 07:38:10;;;;;;;32.10;17.50;;;3.80;90.30;;;;;;5010898;28;20491;-65
2020/12/31 07:40:44;;;;;;;34.80;18.40;;;3.80;90.20;;;;;;5010640;28;20037;-65
2020/12/31 07:43:19;;;;;;;33.87;18.37;;;3.80;90.20;;;;;;5011245;28;20096;-71
2020/12/31 07:45:58;;;;;;;31.17;17.20;;;3.80;90.30;;;;;;5008978;28;20045;-71
2020/12/31 07:48:25;;;;;;;30.73;16.70;;;3.90;90.40;;;;;;5009608;28;20041;-71
2020/12/31 07:50:56;;;;;;;28.30;15.50;;;3.90;90.40;;;;;;5010346;28;20125;-71
2020/12/31 07:53:22;;;;;;;;;;;4.00;90.50;;;;;;5010938;28;20405;-72
2020/12/31 07:55:52;;;;;;;26.80;14.83;;;4.00;90.50;;;;;;5009972;28;19996;-71
2020/12/31 07:58:20;;;;;;;29.20;15.65;;;4.00;90.40;;;;;;5010707;28;20124;-71
2020/12/31 08:00:58;;;;;;;28.10;15.73;;;4.00;90.30;;;;;;5010397;28;20117;-70
2020/12/31 08:03:24;;;;;;;29.57;15.43;;;4.10;90.20;;;;;;5013573;28;20034;-72
2020/12/31 08:05:56;;;;;;;27.37;15.03;;;4.10;90.20;;;;;;5013765;28;20124;-71
2020/12/31 08:08:22;;;;;;;25.87;14.63;;;4.10;90.30;;;;;;5014297;28;20469;-71
2020/12/31 08:10:48;;;;;;;28.67;15.30;;;4.10;90.30;;;;;;5013892;28;20129;-71
2020/12/31 08:13:17;;;;;;;25.13;14.63;;;4.10;90.30;;;;;;5012105;28;20034;-71
2020/12/31 08:15:49;;;;;;;26.27;14.87;;;4.20;90.30;;;;;;4996195;28;20423;-71
2020/12/31 08:18:15;;;;;;;26.23;14.07;;;4.20;90.20;;;;;;5013698;28;20061;-70
2020/12/31 08:20:42;;;;;;;24.63;13.90;;;4.20;90.30;;;;;;5014246;28;20034;-71
2020/12/31 08:23:16;;;;;;;23.23;13.70;;;4.30;90.40;;;;;;5013404;28;20065;-70
2020/12/31 08:25:44;;;;;;;25.83;14.03;;;4.30;90.30;;;;;;5013886;28;20089;-71
2020/12/31 08:28:10;;;;;;;25.60;13.60;;;4.30;90.20;;;;;;5013621;28;20062;-70
2020/12/31 08:30:37;;;;;;;25.00;14.30;;;4.30;90.20;;;;;;5012677;28;20065;-71
2020/12/31 08:33:06;;;;;;;22.30;13.43;;;4.30;90.40;;;;;;5013571;28;20487;-71
2020/12/31 08:35:33;;;;;;;21.63;12.83;;;4.40;90.20;;;;;;5013011;28;20092;-71
2020/12/31 08:38:07;;;;;;;22.83;12.80;;;4.40;90.20;;;;;;5014026;28;20034;-71
2020/12/31 08:40:46;;;;;;;22.73;13.07;;;4.40;90.30;;;;;;5012201;28;20124;-71
2020/12/31 08:43:32;;;;;;;22.20;12.60;;;4.50;90.30;;;;;;5013694;28;20121;-71
2020/12/31 08:45:59;;;;;;;20.47;12.50;;;4.50;90.10;;;;;;5013165;28;20092;-71
2020/12/31 08:48:26;;;;;;;18.93;11.77;;;4.60;90.10;;;;;;5012285;28;20061;-71
2020/12/31 08:51:06;;;;;;;22.63;12.53;;;4.60;90.00;;;;;;5013142;28;20038;-71
2020/12/31 08:53:51;;;;;;;19.27;11.43;;;4.60;90.10;;;;;;5013638;28;20042;-71
2020/12/31 08:56:18;;;;;;;20.67;12.43;;;4.60;90.00;;;;;;5012948;28;20050;-71
2020/12/31 08:58:44;;;;;;;18.90;11.77;;;4.60;90.00;;;;;;5013475;28;20117;-71
2020/12/31 09:01:28;;;;;;;18.27;11.27;;;4.70;90.10;;;;;;5013223;28;20122;-72
2020/12/31 09:04:17;;;;;;;17.90;10.97;;;4.70;90.00;;;;;;5011851;28;20034;-71
2020/12/31 09:06:44;;;;;;;15.20;9.53;;;4.70;89.60;;;;;;5011084;28;20042;-71
2020/12/31 09:09:21;;;;;;;18.73;10.67;;;4.70;89.50;;;;;;5012460;28;20080;-71
2020/12/31 09:12:04;;;;;;;16.93;10.37;;;4.70;89.60;;;;;;5011415;28;20046;-71
2020/12/31 09:14:34;;;;;;;18.47;9.87;;;4.80;89.70;;;;;;5010999;28;20046;-70
2020/12/31 09:17:01;;;;;;;18.20;10.30;;;4.70;89.40;;;;;;5012906;28;20045;-71
2020/12/31 09:19:27;;;;;;;17.07;10.30;;;4.80;89.90;;;;;;5012575;28;20087;-71
2020/12/31 09:21:52;;;;;;;14.93;9.00;;;4.80;89.20;;;;;;5010718;28;20514;-71
2020/12/31 09:24:22;;;;;;;15.63;9.63;;;4.80;89.10;;;;;;5012344;28;20042;-71
2020/12/31 09:26:52;;;;;;;15.77;9.97;;;4.80;89.40;;;;;;5012557;28;20045;-70
2020/12/31 09:29:19;;;;;;;16.77;9.50;;;4.70;89.00;;;;;;5011619;28;20033;-71
2020/12/31 09:31:45;;;;;;;16.13;10.00;;;4.70;89.00;;;;;;5012554;28;20091;-71
2020/12/31 09:34:11;;;;;;;18.03;10.33;;;4.70;89.30;;;;;;5012698;28;20399;-71
2020/12/31 09:36:36;;;;;;;18.57;10.07;;;4.80;89.20;;;;;;5012037;28;20060;-71
2020/12/31 09:39:03;;;;;;;14.40;8.93;;;4.80;89.00;;;;;;5010369;28;20045;-71
2020/12/31 09:41:29;;;;;;;15.10;8.87;;;4.70;88.80;;;;;;5012395;28;20030;-71
2020/12/31 09:43:54;;;;;;;13.70;8.90;;;4.70;88.90;;;;;;5010623;28;20410;-71
2020/12/31 09:46:21;;;;;;;14.70;8.77;;;4.80;88.90;;;;;;5011424;28;20840;-70
2020/12/31 09:48:49;;;;;;;14.93;9.30;;;4.80;88.80;;;;;;5012388;28;20038;-71
2020/12/31 09:51:18;;;;;;;14.17;8.57;;;4.70;88.80;;;;;;5010582;28;20376;-70
2020/12/31 09:53:45;;;;;;;16.00;9.03;;;4.80;88.60;;;;;;5043628;28;20432;-71
2020/12/31 09:56:11;;;;;;;14.97;8.33;;;4.80;88.70;;;;;;5011831;28;20156;-70
2020/12/31 09:58:40;;;;;;;15.87;8.87;;;4.80;88.60;;;;;;5012123;28;20061;-71
2020/12/31 10:01:06;;;;;;;14.60;8.40;;;4.80;88.70;;;;;;5012147;28;20511;-71
2020/12/31 10:03:31;;;;;;;14.80;8.77;;;4.80;88.70;;;;;;4993752;28;20037;-71
2020/12/31 10:05:57;;;;;;;16.80;10.43;;;4.80;88.60;;;;;;5012055;28;20038;-71
2020/12/31 10:08:23;;;;;;;13.33;8.00;;;4.80;88.50;;;;;;5011837;28;20092;-70
2020/12/31 10:10:49;;;;;;;14.13;8.50;;;4.80;88.30;;;;;;5010391;28;20041;-71
2020/12/31 10:13:14;;;;;;;13.33;7.87;;;4.80;88.20;;;;;;5011760;28;20092;-71
2020/12/31 10:15:40;;;;;;;13.87;8.70;;;4.70;88.10;;;;;;5010640;28;20065;-71
2020/12/31 10:18:06;;;;;;;15.07;8.90;;;4.70;88.20;;;;;;5011801;28;20048;-71
2020/12/31 10:20:32;;;;;;;12.80;7.67;;;4.70;88.40;;;;;;5011741;28;20026;-71
2020/12/31 10:22:58;;;;;;;13.50;8.50;;;4.70;88.50;;;;;;5011336;28;20026;-72
2020/12/31 10:25:24;;;;;;;14.10;8.37;;;4.70;88.40;;;;;;5010862;28;20537;-71
2020/12/31 10:27:50;;;;;;;15.17;8.50;;;4.60;88.30;;;;;;4993684;28;20034;-71
2020/12/31 10:30:16;;;;;;;14.07;8.50;;;4.60;88.50;;;;;;5011829;28;20030;-71
2020/12/31 10:32:42;;;;;;;12.43;7.70;;;4.60;88.50;;;;;;5011574;28;20441;-72
2020/12/31 10:35:07;;;;;;;12.57;7.80;;;4.60;88.40;;;;;;5010936;28;20053;-71
2020/12/31 10:37:33;;;;;;;13.37;8.27;;;4.60;88.40;;;;;;5010277;28;20041;-71
2020/12/31 10:39:59;;;;;;;13.10;7.70;;;4.70;88.40;;;;;;5011251;28;20522;-71
2020/12/31 10:42:25;;;;;;;13.10;7.87;;;4.70;88.50;;;;;;5042799;28;20399;-71
2020/12/31 10:44:51;;;;;;;14.43;7.83;;;4.70;88.50;;;;;;5011300;28;20045;-71
2020/12/31 10:47:17;;;;;;;14.47;8.07;;;4.70;88.30;;;;;;5011074;28;20034;-71
2020/12/31 10:49:42;;;;;;;13.70;8.17;;;4.70;88.20;;;;;;5011404;28;20030;-72
2020/12/31 10:52:08;;;;;;;13.57;8.17;;;4.70;88.00;;;;;;5010855;28;20033;-70
2020/12/31 10:54:34;;;;;;;12.73;7.77;;;4.70;88.00;;;;;;5010487;28;20030;-71
2020/12/31 10:56:59;;;;;;;14.47;9.07;;;4.70;88.00;;;;;;5009909;28;20065;-71
2020/12/31 10:59:26;;;;;;;14.83;8.73;;;4.60;88.20;;;;;;5009998;28;20037;-71
2020/12/31 11:01:53;;;;;;;15.10;8.77;;;4.60;88.30;;;;;;4992728;28;20065;-71
2020/12/31 11:04:20;;;;;;;13.43;8.60;;;4.60;88.40;;;;;;5042364;28;20042;-71
2020/12/31 11:06:46;;;;;;;13.03;7.83;;;4.60;88.90;;;;;;5009851;28;20116;-71
2020/12/31 11:09:12;;;;;;;14.20;8.57;;;4.70;88.70;;;;;;5011278;28;20629;-72
2020/12/31 11:11:39;;;;;;;13.67;7.57;;;4.70;88.50;;;;;;5010534;28;20041;-71
2020/12/31 11:14:05;;;;;;;13.47;8.00;;;4.70;88.40;;;;;;5010972;28;20056;-71
2020/12/31 11:16:31;;;;;;;13.30;7.97;;;4.70;88.50;;;;;;5009844;28;20417;-71
2020/12/31 11:18:56;;;;;;;11.33;7.07;;;4.70;88.50;;;;;;4993478;28;20046;-71
2020/12/31 11:21:23;;;;;;;12.50;7.57;;;4.80;88.50;;;;;;5011193;28;20044;-73
2020/12/31 11:23:49;;;;;;;10.93;6.60;;;4.80;88.20;;;;;;5009084;28;20041;-72
2020/12/31 11:26:16;;;;;;;12.07;6.70;;;4.70;88.20;;;;;;5009223;28;20037;-72
2020/12/31 11:28:43;;;;;;;10.90;6.20;;;4.70;88.10;;;;;;5009285;28;20121;-71
2020/12/31 11:31:11;;;;;;;11.30;6.40;;;4.70;88.00;;;;;;5011045;28;20030;-72
2020/12/31 11:33:43;;;;;;;9.47;5.80;;;4.70;88.00;;;;;;5009400;28;20040;-72
2020/12/31 11:36:10;;;;;;;10.27;6.10;;;4.70;88.30;;;;;;5010110;28;20030;-72
2020/12/31 11:38:36;;;;;;;10.13;6.13;;;4.60;88.20;;;;;;5014879;28;20057;-72
2020/12/31 11:41:05;;;;;;;10.40;6.10;;;4.70;88.30;;;;;;5013322;28;20034;-71
2020/12/31 11:43:32;;;;;;;10.03;6.07;;;4.70;88.40;;;;;;5012856;28;20502;-73
2020/12/31 11:45:58;;;;;;;10.60;6.17;;;4.70;88.00;;;;;;5011341;28;20080;-72
2020/12/31 11:48:24;;;;;;;10.07;6.10;;;4.80;87.80;;;;;;5012074;28;20062;-71
2020/12/31 11:50:52;;;;;;;11.03;5.73;;;4.70;87.80;;;;;;5013588;28;20553;-72
2020/12/31 11:53:21;;;;;;;11.70;6.43;;;4.70;87.90;;;;;;5012743;28;20088;-72
2020/12/31 11:55:47;;;;;;;12.70;6.50;;;4.80;88.10;;;;;;5012043;28;20042;-73
2020/12/31 11:58:14;;;;;;;10.97;6.43;;;4.80;87.70;;;;;;5013245;28;20053;-72
2020/12/31 12:00:40;;;;;;;11.20;6.70;;;4.70;87.90;;;;;;5013362;28;20042;-73
2020/12/31 12:03:06;;;;;;;11.73;6.80;;;4.70;87.80;;;;;;5013557;28;20038;-72
2020/12/31 12:05:31;;;;;;;11.07;6.83;;;4.80;88.10;;;;;;5013147;28;20033;-72
2020/12/31 12:07:57;;;;;;;10.90;6.40;;;4.70;87.80;;;;;;5013558;28;20038;-73
2020/12/31 12:10:23;;;;;;;10.17;6.20;;;4.70;87.80;;;;;;5013526;28;20038;-72
2020/12/31 12:12:49;;;;;;;10.83;6.17;;;4.70;87.80;;;;;;5012262;28;20494;-72
2020/12/31 12:15:14;;;;;;;11.07;5.80;;;4.70;88.00;;;;;;5013520;28;20037;-73
2020/12/31 12:17:41;;;;;;;11.70;6.17;;;4.70;87.90;;;;;;5011964;28;20453;-74
2020/12/31 12:20:10;;;;;;;12.90;6.90;;;4.60;87.70;;;;;;5012384;28;20038;-74
2020/12/31 12:22:36;;;;;;;11.63;6.50;;;4.60;88.00;;;;;;5012818;28;20030;-73
2020/12/31 12:25:03;;;;;;;11.80;6.87;;;4.60;88.40;;;;;;5045306;28;20515;-74
2020/12/31 12:27:29;;;;;;;11.27;6.23;;;4.60;88.40;;;;;;5013712;28;20072;-73
2020/12/31 12:29:55;;;;;;;11.97;6.53;;;4.60;88.10;;;;;;5012219;28;20466;-72
2020/12/31 12:32:21;;;;;;;11.20;6.67;;;4.60;87.90;;;;;;5012390;28;20034;-73
2020/12/31 12:34:47;;;;;;;11.37;6.40;;;4.60;88.50;;;;;;5013252;28;20095;-72
2020/12/31 12:37:13;;;;;;;11.10;6.50;;;4.60;88.50;;;;;;5044748;28;20030;-73
2020/12/31 12:39:38;;;;;;;12.13;6.97;;;4.60;88.80;;;;;;5012490;28;20030;-73
2020/12/31 12:42:04;;;;;;;10.87;6.80;;;4.60;89.00;;;;;;5010215;28;20130;-73
2020/12/31 12:44:30;;;;;;;11.43;7.00;;;4.60;88.80;;;;;;5010401;28;20036;-73